Cherokee, Iowa
Current Conditions -  °F | °C
As of 1:55 PM on Wednesday 28 Jan 2015 (Local Time) from KCKP Reporting Station
Scattered Clouds Scattered Clouds  
Wind Chill: 35°   Ceiling: Unl
Heat Index: 41°   Visibility: 7mi
Dew Point: 37°   Wind: 10mph
Humidity: 85%   Direction: 150°SSE
Pressure: 29.68"   Gusts: NA
Location:  42.75°N, 95.55°W
Report Text: KCKP 281955Z AUTO 15009KT 7SM SCT013 05/03 A2968 RMK AO2 T00500027
Loading
Personal Weather Stations






























Interactive Weather Map New forecast layout! Learn more

10-Day Weather Forecast

Advertisements
Track Severe Weather on mobile